createdAt,value
2018-09-06T00:00:19.660Z,0.00
2018-09-06T00:01:19.670Z,0.00
2018-09-06T00:02:19.637Z,0.00
2018-09-06T00:03:19.628Z,0.00
2018-09-06T00:04:19.640Z,0.00
2018-09-06T00:05:19.605Z,0.00
2018-09-06T00:06:19.600Z,0.00
2018-09-06T00:07:19.582Z,0.00
2018-09-06T00:08:19.571Z,0.00
2018-09-06T00:09:19.754Z,0.00
2018-09-06T00:10:19.549Z,0.00
2018-09-06T00:11:19.538Z,0.00
2018-09-06T00:12:19.527Z,0.00
2018-09-06T00:13:19.520Z,0.00
2018-09-06T00:14:19.519Z,0.00
2018-09-06T00:15:19.505Z,0.00
2018-09-06T00:16:19.486Z,0.00
2018-09-06T00:17:19.473Z,0.00
2018-09-06T00:18:19.463Z,0.00
2018-09-06T00:19:19.494Z,0.00
2018-09-06T00:20:19.439Z,0.00
2018-09-06T00:21:19.437Z,0.00
2018-09-06T00:22:19.416Z,0.00
2018-09-06T00:23:19.406Z,0.00
2018-09-06T00:24:19.401Z,0.00
2018-09-06T00:25:19.398Z,0.00
2018-09-06T00:26:19.375Z,0.00
2018-09-06T00:27:19.369Z,0.00
2018-09-06T00:28:19.351Z,0.00
2018-09-06T00:29:19.345Z,0.00
2018-09-06T00:30:19.340Z,0.00
2018-09-06T00:31:19.319Z,0.00
2018-09-06T00:32:19.323Z,0.00
2018-09-06T00:33:19.311Z,0.00
2018-09-06T00:34:19.286Z,0.00
2018-09-06T00:35:19.289Z,0.00
2018-09-06T00:36:19.267Z,0.00
2018-09-06T00:37:19.259Z,0.00
2018-09-06T00:38:19.241Z,0.00
2018-09-06T00:39:19.238Z,0.00
2018-09-06T00:40:19.249Z,0.00
2018-09-06T00:41:19.211Z,0.00
2018-09-06T00:42:19.222Z,0.00
2018-09-06T00:43:19.188Z,0.00
2018-09-06T00:44:19.184Z,0.00
2018-09-06T00:45:19.170Z,0.00
2018-09-06T00:46:19.165Z,0.00
2018-09-06T00:47:19.161Z,0.00
2018-09-06T00:48:19.134Z,0.00
2018-09-06T00:49:19.119Z,0.00
2018-09-06T00:50:19.108Z,0.00
2018-09-06T00:51:19.109Z,0.00
2018-09-06T00:52:19.088Z,0.00
2018-09-06T00:53:19.079Z,0.00
2018-09-06T00:54:19.082Z,0.00
2018-09-06T00:55:19.072Z,0.00
2018-09-06T00:56:19.053Z,0.00
2018-09-06T00:57:19.032Z,0.00
2018-09-06T00:58:19.023Z,0.00
2018-09-06T00:59:19.010Z,0.00
2018-09-06T01:00:18.997Z,0.00
2018-09-06T01:01:19.003Z,0.00
2018-09-06T01:02:18.979Z,0.00
2018-09-06T01:03:18.975Z,0.00
2018-09-06T01:04:18.958Z,0.00
2018-09-06T01:05:18.966Z,0.00
2018-09-06T01:06:18.947Z,0.00
2018-09-06T01:07:18.927Z,0.00
2018-09-06T01:08:18.913Z,0.00
2018-09-06T01:09:18.899Z,0.00
2018-09-06T01:10:18.894Z,0.00
2018-09-06T01:11:18.894Z,0.00
2018-09-06T01:12:18.866Z,0.00
2018-09-06T01:13:18.901Z,0.00
2018-09-06T01:14:18.850Z,0.00
2018-09-06T01:15:18.836Z,0.00
2018-09-06T01:16:18.838Z,0.00
2018-09-06T01:17:18.822Z,0.00
2018-09-06T01:18:18.810Z,0.00
2018-09-06T01:19:18.796Z,0.00
2018-09-06T01:20:18.785Z,0.00
2018-09-06T01:21:18.786Z,0.00
2018-09-06T01:22:18.761Z,0.00
2018-09-06T01:23:18.746Z,0.00
2018-09-06T01:24:18.736Z,0.00
2018-09-06T01:25:18.725Z,0.00
2018-09-06T01:26:18.730Z,0.00
2018-09-06T01:27:18.702Z,0.00
2018-09-06T01:28:18.714Z,0.00
2018-09-06T01:29:18.686Z,0.00
2018-09-06T01:30:18.671Z,0.00
2018-09-06T01:31:18.676Z,0.00
2018-09-06T01:32:18.649Z,0.00
2018-09-06T01:33:18.644Z,0.00
2018-09-06T01:34:18.631Z,0.00
2018-09-06T01:35:18.617Z,0.00
2018-09-06T01:36:18.616Z,0.00
2018-09-06T01:37:18.595Z,0.00
2018-09-06T01:38:18.588Z,0.00
2018-09-06T01:39:18.578Z,0.00
2018-09-06T01:40:18.562Z,0.00
2018-09-06T01:41:18.595Z,0.00
2018-09-06T01:42:18.539Z,0.00
2018-09-06T01:43:18.528Z,0.00
2018-09-06T01:44:18.516Z,0.00
2018-09-06T01:45:18.516Z,0.00
2018-09-06T01:46:18.494Z,0.00
2018-09-06T01:47:18.497Z,0.00
2018-09-06T01:48:18.475Z,0.00
2018-09-06T01:49:18.460Z,0.00
2018-09-06T01:50:18.470Z,0.00
2018-09-06T01:51:18.468Z,0.00
2018-09-06T01:52:18.446Z,0.00
2018-09-06T01:53:18.418Z,0.00
2018-09-06T01:54:18.423Z,0.00
2018-09-06T01:55:18.398Z,0.00
2018-09-06T01:56:18.384Z,0.00
2018-09-06T01:57:18.385Z,0.00
2018-09-06T01:58:18.369Z,0.00
2018-09-06T01:59:18.352Z,0.00
2018-09-06T02:00:18.340Z,0.00
2018-09-06T02:01:18.333Z,0.00
2018-09-06T02:02:18.331Z,0.00
2018-09-06T02:03:18.307Z,0.00
2018-09-06T02:04:18.311Z,0.00
2018-09-06T02:05:18.285Z,0.00
2018-09-06T02:06:18.276Z,0.00
2018-09-06T02:07:18.276Z,0.00
2018-09-06T02:08:18.258Z,0.00
2018-09-06T02:09:18.244Z,0.00
2018-09-06T02:10:18.237Z,0.00
2018-09-06T02:11:18.224Z,0.00
2018-09-06T02:12:18.220Z,0.00
2018-09-06T02:13:18.197Z,0.00
2018-09-06T02:14:18.207Z,0.00
2018-09-06T02:15:18.175Z,0.00
2018-09-06T02:16:18.168Z,0.00
2018-09-06T02:17:18.182Z,0.00
2018-09-06T02:18:18.145Z,0.00
2018-09-06T02:19:18.132Z,0.00
2018-09-06T02:20:18.121Z,0.00
2018-09-06T02:21:18.115Z,0.00
2018-09-06T02:22:18.109Z,0.00
2018-09-06T02:23:18.089Z,0.00
2018-09-06T02:24:18.138Z,0.00
2018-09-06T02:25:18.070Z,0.00
2018-09-06T02:26:18.058Z,0.00
2018-09-06T02:27:18.079Z,0.00
2018-09-06T02:28:18.035Z,0.00
2018-09-06T02:29:18.025Z,0.00
2018-09-06T02:30:18.015Z,0.00
2018-09-06T02:31:17.998Z,0.00
2018-09-06T02:32:18.000Z,0.00
2018-09-06T02:33:17.985Z,0.00
2018-09-06T02:34:17.977Z,0.00
2018-09-06T02:35:17.962Z,0.00
2018-09-06T02:36:17.950Z,0.00
2018-09-06T02:37:17.970Z,0.00
2018-09-06T02:38:17.927Z,0.00
2018-09-06T02:39:17.910Z,0.00
2018-09-06T02:40:17.904Z,0.00
2018-09-06T02:41:17.892Z,0.00
2018-09-06T02:42:17.886Z,0.00
2018-09-06T02:43:17.867Z,0.00
2018-09-06T02:44:17.855Z,0.00
2018-09-06T02:45:17.844Z,0.00
2018-09-06T02:46:17.849Z,0.00
2018-09-06T02:47:17.833Z,0.00
2018-09-06T02:48:17.816Z,0.00
2018-09-06T02:49:17.800Z,0.00
2018-09-06T02:50:17.791Z,0.00
2018-09-06T02:51:17.779Z,0.00
2018-09-06T02:52:17.778Z,0.00
2018-09-06T02:53:17.765Z,0.00
2018-09-06T02:54:17.750Z,0.00
2018-09-06T02:55:17.735Z,0.00
2018-09-06T02:56:17.724Z,0.00
2018-09-06T02:57:17.743Z,0.00
2018-09-06T02:58:17.713Z,0.00
2018-09-06T02:59:17.694Z,0.00
2018-09-06T03:00:17.696Z,0.00
2018-09-06T03:01:17.668Z,0.00
2018-09-06T03:02:17.660Z,0.00
2018-09-06T03:03:17.671Z,0.00
2018-09-06T03:04:17.634Z,0.00
2018-09-06T03:05:17.625Z,0.00
2018-09-06T03:06:17.619Z,0.00
2018-09-06T03:07:17.602Z,0.00
2018-09-06T03:08:17.604Z,0.00
2018-09-06T03:09:17.591Z,0.00
2018-09-06T03:10:17.572Z,0.00
2018-09-06T03:11:17.559Z,0.00
2018-09-06T03:12:17.544Z,0.00
2018-09-06T03:13:17.559Z,0.00
2018-09-06T03:14:17.528Z,0.00
2018-09-06T03:15:17.523Z,0.00
2018-09-06T03:16:17.504Z,0.00
2018-09-06T03:17:17.497Z,0.00
2018-09-06T03:18:17.492Z,0.00
2018-09-06T03:19:17.467Z,0.00
2018-09-06T03:20:17.463Z,0.00
2018-09-06T03:21:17.453Z,0.00
2018-09-06T03:22:17.435Z,0.00
2018-09-06T03:23:17.470Z,0.00
2018-09-06T03:24:17.413Z,0.00
2018-09-06T03:25:17.405Z,0.00
2018-09-06T03:26:17.396Z,0.00
2018-09-06T03:27:17.389Z,0.00
2018-09-06T03:28:17.381Z,0.00
2018-09-06T03:29:17.358Z,0.00
2018-09-06T03:30:17.347Z,0.00
2018-09-06T03:31:17.344Z,0.00
2018-09-06T03:32:17.326Z,0.00
2018-09-06T03:33:17.329Z,0.00
2018-09-06T03:34:17.305Z,0.00
2018-09-06T03:35:17.291Z,0.00
2018-09-06T03:36:17.289Z,0.00
2018-09-06T03:37:17.279Z,0.00
2018-09-06T03:38:17.275Z,0.00
2018-09-06T03:39:17.253Z,0.00
2018-09-06T03:40:17.236Z,0.00
2018-09-06T03:41:17.228Z,0.00
2018-09-06T03:42:17.215Z,0.00
2018-09-06T03:43:17.219Z,0.00
2018-09-06T03:44:17.200Z,0.00
2018-09-06T03:45:17.190Z,0.00
2018-09-06T03:46:17.194Z,0.00
2018-09-06T03:47:17.165Z,0.00
2018-09-06T03:48:17.161Z,0.00
2018-09-06T03:49:17.138Z,0.00
2018-09-06T03:50:17.139Z,0.00
2018-09-06T03:51:17.114Z,0.00
2018-09-06T03:52:17.108Z,0.00
2018-09-06T03:53:17.106Z,0.00
2018-09-06T03:54:17.088Z,0.00
2018-09-06T03:55:17.074Z,0.00
2018-09-06T03:56:17.071Z,0.00
2018-09-06T03:57:17.051Z,0.00
2018-09-06T03:58:17.049Z,0.00
2018-09-06T03:59:17.031Z,0.00
2018-09-06T04:00:17.019Z,0.00
2018-09-06T04:01:17.013Z,0.00
2018-09-06T04:02:17.007Z,0.00
2018-09-06T04:03:17.002Z,0.00
2018-09-06T04:04:16.973Z,0.00
2018-09-06T04:05:16.963Z,0.00
2018-09-06T04:06:16.951Z,0.00
2018-09-06T04:07:16.941Z,0.00
2018-09-06T04:08:16.953Z,0.00
2018-09-06T04:09:16.938Z,0.00
2018-09-06T04:10:16.907Z,0.00
2018-09-06T04:11:16.899Z,0.00
2018-09-06T04:12:16.887Z,0.00
2018-09-06T04:13:16.886Z,0.00
2018-09-06T04:14:16.870Z,0.00
2018-09-06T04:15:16.858Z,0.00
2018-09-06T04:16:16.841Z,0.00
2018-09-06T04:17:16.831Z,0.00
2018-09-06T04:18:16.837Z,0.00
2018-09-06T04:19:16.818Z,0.00
2018-09-06T04:20:16.798Z,0.00
2018-09-06T04:21:16.794Z,0.00
2018-09-06T04:22:16.778Z,0.00
2018-09-06T04:23:16.789Z,0.00
2018-09-06T04:24:16.812Z,0.00
2018-09-06T04:25:16.740Z,0.00
2018-09-06T04:26:16.731Z,0.00
2018-09-06T04:27:16.719Z,0.00
2018-09-06T04:28:16.716Z,0.00
2018-09-06T04:29:16.709Z,0.00
2018-09-06T04:30:16.686Z,0.00
2018-09-06T04:31:16.675Z,0.00
2018-09-06T04:32:16.680Z,0.00
2018-09-06T04:33:16.652Z,0.00
2018-09-06T04:34:16.660Z,0.00
2018-09-06T04:35:16.637Z,0.00
2018-09-06T04:36:16.706Z,0.00
2018-09-06T04:37:16.611Z,0.00
2018-09-06T04:38:16.596Z,0.00
2018-09-06T04:39:16.597Z,0.00
2018-09-06T04:40:16.582Z,0.00
2018-09-06T04:41:16.564Z,0.00
2018-09-06T04:42:16.552Z,0.00
2018-09-06T04:43:16.548Z,0.00
2018-09-06T04:44:16.542Z,0.00
2018-09-06T04:45:16.520Z,0.00
2018-09-06T04:46:16.520Z,0.00
2018-09-06T04:47:16.499Z,0.00
2018-09-06T04:48:16.488Z,0.00
2018-09-06T04:49:16.488Z,0.00
2018-09-06T04:50:16.464Z,0.00
2018-09-06T04:51:16.453Z,0.00
2018-09-06T04:52:16.448Z,0.00
2018-09-06T04:53:16.440Z,0.00
2018-09-06T04:54:16.439Z,0.00
2018-09-06T04:55:16.481Z,0.00
2018-09-06T04:56:16.399Z,0.00
2018-09-06T04:57:16.388Z,0.00
2018-09-06T04:58:16.384Z,0.00
2018-09-06T04:59:16.384Z,4.00
2018-09-06T05:00:16.353Z,4.00
2018-09-06T05:01:16.342Z,0.00
2018-09-06T05:02:16.333Z,0.00
2018-09-06T05:03:16.321Z,0.00
2018-09-06T05:04:16.331Z,0.00
2018-09-06T05:05:16.316Z,0.00
2018-09-06T05:06:16.288Z,0.00
2018-09-06T05:07:16.279Z,0.00
2018-09-06T05:08:16.265Z,0.00
2018-09-06T05:09:16.267Z,0.00
2018-09-06T05:10:16.245Z,0.00
2018-09-06T05:11:16.238Z,0.00
2018-09-06T05:12:16.221Z,0.00
2018-09-06T05:13:16.229Z,0.00
2018-09-06T05:14:16.211Z,4.00
2018-09-06T05:15:16.190Z,4.00
2018-09-06T05:16:16.205Z,4.00
2018-09-06T05:17:16.169Z,4.00
2018-09-06T05:18:16.177Z,0.00
2018-09-06T05:19:16.156Z,0.00
2018-09-06T05:20:16.135Z,4.00
2018-09-06T05:21:16.122Z,4.00
2018-09-06T05:22:16.110Z,4.00
2018-09-06T05:23:16.131Z,4.00
2018-09-06T05:24:16.101Z,0.00
2018-09-06T05:25:16.080Z,4.00
2018-09-06T05:26:16.066Z,4.00
2018-09-06T05:27:16.058Z,4.00
2018-09-06T05:28:16.042Z,8.00
2018-09-06T05:29:16.048Z,4.00
2018-09-06T05:30:16.052Z,4.00
2018-09-06T05:31:16.010Z,8.00
2018-09-06T05:32:15.997Z,4.00
2018-09-06T05:33:15.991Z,4.00
2018-09-06T05:34:15.991Z,4.00
2018-09-06T05:35:16.095Z,8.00
2018-09-06T05:36:16.000Z,8.00
2018-09-06T05:37:15.945Z,8.00
2018-09-06T05:38:15.932Z,8.00
2018-09-06T05:39:15.930Z,8.00
2018-09-06T05:40:15.909Z,8.00
2018-09-06T05:41:15.908Z,8.00
2018-09-06T05:42:15.895Z,8.00
2018-09-06T05:43:15.901Z,8.00
2018-09-06T05:44:15.875Z,8.00
2018-09-06T05:45:15.857Z,8.00
2018-09-06T05:46:15.840Z,12.00
2018-09-06T05:47:15.913Z,8.00
2018-09-06T05:48:15.833Z,12.00
2018-09-06T05:49:15.834Z,8.00
2018-09-06T05:50:15.801Z,12.00
2018-09-06T05:51:15.784Z,12.00
2018-09-06T05:52:15.775Z,12.00
2018-09-06T05:53:15.764Z,16.00
2018-09-06T05:54:15.759Z,12.00
2018-09-06T05:55:15.766Z,12.00
2018-09-06T05:56:15.729Z,16.00
2018-09-06T05:57:15.717Z,16.00
2018-09-06T05:58:15.715Z,16.00
2018-09-06T05:59:15.694Z,16.00
2018-09-06T06:00:15.695Z,16.00
2018-09-06T06:01:15.674Z,20.00
2018-09-06T06:02:15.670Z,20.00
2018-09-06T06:03:15.656Z,24.00
2018-09-06T06:04:15.652Z,24.00
2018-09-06T06:05:15.701Z,24.00
2018-09-06T06:06:15.617Z,24.00
2018-09-06T06:07:15.606Z,24.00
2018-09-06T06:08:15.597Z,24.00
2018-09-06T06:09:15.586Z,28.00
2018-09-06T06:10:15.588Z,32.00
2018-09-06T06:11:15.569Z,28.00
2018-09-06T06:12:15.564Z,32.00
2018-09-06T06:13:15.546Z,32.00
2018-09-06T06:14:15.532Z,32.00
2018-09-06T06:15:15.532Z,32.00
2018-09-06T06:16:15.513Z,32.00
2018-09-06T06:17:15.497Z,28.00
2018-09-06T06:18:15.491Z,28.00
2018-09-06T06:19:15.482Z,28.00
2018-09-06T06:20:15.478Z,28.00
2018-09-06T06:21:15.482Z,32.00
2018-09-06T06:22:15.512Z,32.00
2018-09-06T06:23:15.434Z,28.00
2018-09-06T06:24:15.423Z,28.00
2018-09-06T06:25:15.457Z,28.00
2018-09-06T06:26:15.403Z,36.00
2018-09-06T06:27:15.402Z,32.00
2018-09-06T06:28:15.414Z,36.00
2018-09-06T06:29:15.371Z,40.00
2018-09-06T06:30:15.373Z,40.00
2018-09-06T06:31:15.362Z,40.00
2018-09-06T06:32:15.353Z,44.00
2018-09-06T06:33:15.323Z,44.00
2018-09-06T06:34:15.311Z,44.00
2018-09-06T06:35:15.319Z,48.00
2018-09-06T06:36:15.291Z,48.00
2018-09-06T06:37:15.326Z,48.00
2018-09-06T06:38:15.269Z,48.00
2018-09-06T06:39:15.259Z,48.00
2018-09-06T06:40:15.263Z,48.00
2018-09-06T06:41:15.238Z,44.00
2018-09-06T06:42:15.223Z,48.00
2018-09-06T06:43:15.215Z,48.00
2018-09-06T06:44:15.223Z,48.00
2018-09-06T06:45:15.201Z,40.00
2018-09-06T06:46:15.184Z,36.00
2018-09-06T06:47:15.168Z,36.00
2018-09-06T06:48:15.174Z,28.00
2018-09-06T06:49:15.145Z,24.00
2018-09-06T06:50:15.245Z,28.00
2018-09-06T06:51:15.122Z,32.00
2018-09-06T06:52:15.114Z,32.00
2018-09-06T06:53:15.104Z,36.00
2018-09-06T06:54:15.091Z,36.00
2018-09-06T06:55:15.091Z,28.00
2018-09-06T06:56:15.071Z,32.00
2018-09-06T06:57:15.058Z,32.00
2018-09-06T06:58:15.080Z,24.00
2018-09-06T06:59:15.041Z,36.00
2018-09-06T07:00:15.076Z,36.00
2018-09-06T07:01:15.017Z,40.00
2018-09-06T07:02:15.004Z,40.00
2018-09-06T07:03:14.995Z,44.00
2018-09-06T07:04:15.001Z,44.00
2018-09-06T07:05:15.011Z,48.00
2018-09-06T07:06:14.971Z,40.00
2018-09-06T07:07:14.955Z,36.00
2018-09-06T07:08:14.939Z,36.00
2018-09-06T07:09:14.925Z,36.00
2018-09-06T07:10:14.917Z,40.00
2018-09-06T07:11:14.939Z,40.00
2018-09-06T07:12:14.896Z,40.00
2018-09-06T07:13:14.894Z,40.00
2018-09-06T07:14:14.872Z,40.00
2018-09-06T07:15:14.860Z,40.00
2018-09-06T07:16:14.860Z,44.00
2018-09-06T07:17:14.837Z,44.00
2018-09-06T07:18:14.959Z,44.00
2018-09-06T07:19:14.815Z,48.00
2018-09-06T07:20:14.806Z,44.00
2018-09-06T07:21:14.805Z,52.00
2018-09-06T07:22:14.782Z,52.00
2018-09-06T07:23:14.773Z,48.00
2018-09-06T07:24:14.790Z,40.00
2018-09-06T07:25:14.750Z,52.00
2018-09-06T07:26:14.749Z,48.00
2018-09-06T07:27:14.730Z,48.00
2018-09-06T07:28:14.718Z,56.00
2018-09-06T07:29:14.705Z,44.00
2018-09-06T07:30:14.701Z,56.00
2018-09-06T07:31:14.701Z,60.00
2018-09-06T07:32:14.693Z,60.00
2018-09-06T07:33:14.670Z,64.00
2018-09-06T07:34:14.671Z,64.00
2018-09-06T07:35:14.682Z,60.00
2018-09-06T07:36:14.662Z,60.00
2018-09-06T07:37:14.644Z,64.00
2018-09-06T07:38:14.612Z,64.00
2018-09-06T07:39:14.600Z,64.00
2018-09-06T07:40:14.609Z,64.00
2018-09-06T07:41:14.596Z,68.00
2018-09-06T07:42:14.564Z,72.00
2018-09-06T07:43:14.555Z,76.00
2018-09-06T07:44:14.541Z,72.00
2018-09-06T07:45:14.536Z,72.00
2018-09-06T07:46:14.569Z,72.00
2018-09-06T07:47:14.509Z,76.00
2018-09-06T07:48:14.497Z,76.00
2018-09-06T07:49:14.492Z,72.00
2018-09-06T07:50:14.477Z,68.00
2018-09-06T07:51:14.475Z,60.00
2018-09-06T07:52:14.509Z,60.00
2018-09-06T07:53:14.443Z,56.00
2018-09-06T07:54:14.434Z,60.00
2018-09-06T07:55:14.421Z,56.00
2018-09-06T07:56:14.434Z,64.00
2018-09-06T07:57:14.399Z,68.00
2018-09-06T07:58:14.418Z,60.00
2018-09-06T07:59:14.396Z,56.00
2018-09-06T08:00:14.368Z,52.00
2018-09-06T08:01:14.370Z,48.00
2018-09-06T08:02:14.352Z,64.00
2018-09-06T08:03:14.335Z,68.00
2018-09-06T08:04:14.335Z,68.00
2018-09-06T08:05:14.312Z,68.00
2018-09-06T08:06:14.313Z,72.00
2018-09-06T08:07:14.309Z,68.00
2018-09-06T08:08:14.282Z,60.00
2018-09-06T08:09:14.294Z,44.00
2018-09-06T08:10:14.284Z,56.00
2018-09-06T08:11:14.275Z,60.00
2018-09-06T08:12:14.349Z,56.00
2018-09-06T08:13:14.230Z,56.00
2018-09-06T08:14:14.216Z,64.00
2018-09-06T08:15:14.256Z,72.00
2018-09-06T08:16:14.191Z,80.00
2018-09-06T08:17:14.194Z,76.00
2018-09-06T08:18:14.172Z,72.00
2018-09-06T08:19:14.164Z,76.00
2018-09-06T08:20:14.147Z,72.00
2018-09-06T08:21:14.137Z,56.00
2018-09-06T08:22:14.173Z,60.00
2018-09-06T08:23:14.115Z,64.00
2018-09-06T08:24:14.144Z,60.00
2018-09-06T08:25:14.095Z,60.00
2018-09-06T08:26:14.082Z,60.00
2018-09-06T08:27:14.100Z,56.00
2018-09-06T08:28:14.062Z,60.00
2018-09-06T08:29:14.074Z,56.00
2018-09-06T08:30:14.042Z,48.00
2018-09-06T08:31:14.217Z,52.00
2018-09-06T08:32:14.050Z,52.00
2018-09-06T08:33:14.004Z,52.00
2018-09-06T08:34:13.994Z,52.00
2018-09-06T08:35:14.019Z,56.00
2018-09-06T08:36:13.972Z,56.00
2018-09-06T08:37:13.992Z,52.00
2018-09-06T08:38:13.951Z,48.00
2018-09-06T08:39:13.942Z,52.00
2018-09-06T08:40:13.929Z,44.00
2018-09-06T08:41:13.915Z,44.00
2018-09-06T08:42:13.936Z,56.00
2018-09-06T08:43:13.894Z,56.00
2018-09-06T08:44:13.887Z,36.00
2018-09-06T08:45:13.937Z,36.00
2018-09-06T08:46:13.862Z,28.00
2018-09-06T08:47:13.900Z,36.00
2018-09-06T08:48:13.855Z,44.00
2018-09-06T08:49:13.828Z,40.00
2018-09-06T08:50:13.817Z,28.00
2018-09-06T08:51:13.810Z,32.00
2018-09-06T08:52:13.817Z,32.00
2018-09-06T08:53:13.785Z,24.00
2018-09-06T08:54:13.792Z,24.00
2018-09-06T08:55:13.787Z,28.00
2018-09-06T08:56:13.753Z,24.00
2018-09-06T08:57:13.754Z,20.00
2018-09-06T08:58:13.732Z,24.00
2018-09-06T08:59:13.719Z,20.00
2018-09-06T09:00:13.838Z,20.00
2018-09-06T09:01:13.698Z,24.00
2018-09-06T09:02:13.916Z,24.00
2018-09-06T09:03:13.726Z,28.00
2018-09-06T09:04:13.665Z,28.00
2018-09-06T09:05:13.655Z,28.00
2018-09-06T09:06:13.651Z,28.00
2018-09-06T09:07:13.658Z,28.00
2018-09-06T09:08:13.696Z,32.00
2018-09-06T09:09:13.612Z,28.00
2018-09-06T09:10:13.607Z,28.00
2018-09-06T09:11:13.601Z,28.00
2018-09-06T09:12:13.577Z,24.00
2018-09-06T09:13:13.626Z,28.00
2018-09-06T09:14:13.554Z,24.00
2018-09-06T09:15:13.548Z,28.00
2018-09-06T09:16:13.647Z,28.00
2018-09-06T09:17:13.523Z,28.00
2018-09-06T09:18:13.561Z,28.00
2018-09-06T09:19:13.499Z,28.00
2018-09-06T09:20:13.490Z,28.00
2018-09-06T09:21:13.486Z,28.00
2018-09-06T09:22:13.720Z,28.00
2018-09-06T09:23:13.484Z,28.00
2018-09-06T09:24:13.443Z,28.00
2018-09-06T09:25:13.436Z,28.00
2018-09-06T09:26:13.422Z,28.00
2018-09-06T09:27:13.409Z,32.00
2018-09-06T09:28:13.413Z,32.00
2018-09-06T09:29:13.417Z,36.00
2018-09-06T09:30:13.377Z,32.00
2018-09-06T09:31:13.388Z,32.00
2018-09-06T09:32:13.355Z,28.00
2018-09-06T09:33:13.358Z,32.00
2018-09-06T09:34:13.339Z,32.00
2018-09-06T09:35:13.825Z,32.00
2018-09-06T09:36:13.332Z,36.00
2018-09-06T09:37:13.302Z,32.00
2018-09-06T09:38:13.307Z,28.00
2018-09-06T09:39:13.281Z,28.00
2018-09-06T09:40:13.268Z,36.00
2018-09-06T09:41:13.279Z,36.00
2018-09-06T09:42:13.269Z,32.00
2018-09-06T09:43:13.255Z,28.00
2018-09-06T09:44:13.242Z,32.00
2018-09-06T09:45:13.216Z,32.00
2018-09-06T09:47:39.522Z,32.00
2018-09-06T09:48:39.518Z,32.00
2018-09-06T09:49:39.565Z,28.00
2018-09-06T09:51:09.479Z,28.00
2018-09-06T09:52:09.470Z,24.00
2018-09-06T09:53:09.469Z,32.00
2018-09-06T09:54:09.452Z,32.00
2018-09-06T09:55:09.435Z,32.00
2018-09-06T09:56:09.425Z,28.00
2018-09-06T09:57:09.464Z,24.00
2018-09-06T09:58:09.419Z,24.00
2018-09-06T09:59:09.394Z,20.00
2018-09-06T10:00:09.384Z,20.00
2018-09-06T10:01:09.399Z,16.00
2018-09-06T10:02:09.359Z,16.00
2018-09-06T10:03:09.373Z,16.00
2018-09-06T10:04:09.365Z,12.00
2018-09-06T10:05:09.328Z,12.00
2018-09-06T10:06:09.319Z,12.00
2018-09-06T10:07:09.305Z,16.00
2018-09-06T10:08:09.298Z,12.00
2018-09-06T10:09:09.315Z,12.00
2018-09-06T10:10:09.270Z,12.00
2018-09-06T10:11:09.266Z,12.00
2018-09-06T10:12:09.254Z,12.00
2018-09-06T10:13:09.260Z,12.00
2018-09-06T10:14:09.239Z,12.00
2018-09-06T10:15:09.217Z,8.00
2018-09-06T10:16:09.252Z,12.00
2018-09-06T10:17:09.197Z,8.00
2018-09-06T10:18:09.215Z,8.00
2018-09-06T10:19:09.198Z,8.00
2018-09-06T10:20:09.164Z,12.00
2018-09-06T10:21:09.153Z,8.00
2018-09-06T10:22:09.142Z,8.00
2018-09-06T10:23:09.130Z,8.00
2018-09-06T10:24:09.153Z,8.00
2018-09-06T10:25:09.107Z,8.00
2018-09-06T10:26:09.098Z,8.00
2018-09-06T10:27:09.088Z,8.00
2018-09-06T10:28:09.075Z,8.00
2018-09-06T10:29:09.074Z,12.00
2018-09-06T10:30:09.087Z,8.00
2018-09-06T10:31:09.047Z,8.00
2018-09-06T10:32:09.029Z,8.00
2018-09-06T10:33:09.028Z,12.00
2018-09-06T10:34:09.020Z,12.00
2018-09-06T10:35:08.997Z,12.00
2018-09-06T10:36:09.008Z,16.00
2018-09-06T10:37:09.001Z,12.00
2018-09-06T10:38:08.967Z,16.00
2018-09-06T10:39:09.024Z,16.00
2018-09-06T10:40:09.043Z,16.00
2018-09-06T10:41:08.933Z,12.00
2018-09-06T10:42:08.921Z,16.00
2018-09-06T10:43:08.913Z,12.00
2018-09-06T10:44:08.939Z,16.00
2018-09-06T10:45:08.892Z,12.00
2018-09-06T10:46:08.876Z,12.00
2018-09-06T10:47:08.867Z,12.00
2018-09-06T10:48:08.859Z,12.00
2018-09-06T10:49:08.862Z,8.00
2018-09-06T10:50:08.839Z,12.00
2018-09-06T10:51:08.822Z,12.00
2018-09-06T10:52:08.842Z,12.00
2018-09-06T10:53:08.802Z,12.00
2018-09-06T10:54:08.804Z,12.00
2018-09-06T10:55:08.802Z,8.00
2018-09-06T10:56:08.776Z,12.00
2018-09-06T10:57:08.773Z,12.00
2018-09-06T10:58:08.746Z,12.00
2018-09-06T10:59:08.795Z,12.00
2018-09-06T11:00:08.726Z,16.00
2018-09-06T11:01:08.718Z,20.00
2018-09-06T11:02:08.700Z,20.00
2018-09-06T11:03:08.697Z,20.00
2018-09-06T11:04:08.681Z,24.00
2018-09-06T11:05:08.708Z,20.00
2018-09-06T11:06:08.657Z,20.00
2018-09-06T11:07:08.651Z,24.00
2018-09-06T12:35:50.623Z,8.00
2018-09-06T17:05:08.873Z,16.00
2018-09-06T17:06:08.851Z,12.00
2018-09-06T17:07:08.847Z,12.00
2018-09-06T17:08:08.832Z,8.00
2018-09-06T17:09:08.843Z,8.00
2018-09-06T17:10:08.814Z,12.00
2018-09-06T17:11:08.797Z,12.00
2018-09-06T17:12:08.786Z,8.00
2018-09-06T17:13:08.778Z,8.00
2018-09-06T17:14:08.764Z,8.00
2018-09-06T17:15:08.795Z,8.00
2018-09-06T17:16:08.744Z,8.00
2018-09-06T17:17:08.740Z,8.00
2018-09-06T17:18:08.726Z,8.00
2018-09-06T17:19:08.731Z,4.00
2018-09-06T17:20:08.721Z,8.00
2018-09-06T17:21:08.691Z,8.00
2018-09-06T17:22:08.699Z,4.00
2018-09-06T17:23:08.668Z,8.00
2018-09-06T17:24:08.670Z,8.00
2018-09-06T17:25:08.658Z,8.00
2018-09-06T17:26:08.644Z,4.00
2018-09-06T17:27:08.624Z,4.00
2018-09-06T17:28:08.628Z,4.00
2018-09-06T17:29:08.600Z,0.00
2018-09-06T17:30:08.724Z,4.00
2018-09-06T17:31:08.580Z,0.00
2018-09-06T17:32:08.592Z,0.00
2018-09-06T17:33:08.647Z,4.00
2018-09-06T17:34:08.545Z,4.00
2018-09-06T17:35:08.565Z,4.00
2018-09-06T17:36:08.523Z,0.00
2018-09-06T17:37:08.526Z,0.00
2018-09-06T17:38:08.498Z,0.00
2018-09-06T17:39:08.677Z,0.00
2018-09-06T17:40:08.476Z,0.00
2018-09-06T17:41:08.468Z,0.00
2018-09-06T17:42:08.473Z,0.00
2018-09-06T17:43:08.482Z,0.00
2018-09-06T17:44:08.451Z,0.00
2018-09-06T17:45:08.422Z,0.00
2018-09-06T17:46:08.419Z,0.00
2018-09-06T17:47:08.421Z,0.00
2018-09-06T17:48:08.390Z,0.00
2018-09-06T17:49:08.377Z,0.00
2018-09-06T17:50:08.365Z,0.00
2018-09-06T17:51:08.374Z,0.00
2018-09-06T17:52:08.360Z,0.00
2018-09-06T17:53:08.350Z,0.00
2018-09-06T17:54:08.382Z,0.00
2018-09-06T17:55:08.326Z,0.00
2018-09-06T17:56:08.312Z,0.00
2018-09-06T17:57:08.300Z,0.00
2018-09-06T17:58:08.282Z,0.00
2018-09-06T17:59:08.267Z,0.00
2018-09-06T18:00:08.266Z,0.00
2018-09-06T18:01:08.248Z,0.00
2018-09-06T18:02:08.257Z,0.00
2018-09-06T18:03:08.220Z,0.00
2018-09-06T18:04:08.229Z,0.00
2018-09-06T18:05:08.208Z,0.00
2018-09-06T18:06:08.190Z,0.00
2018-09-06T18:07:08.186Z,0.00
2018-09-06T18:08:08.215Z,0.00
2018-09-06T18:09:08.153Z,0.00
2018-09-06T18:10:08.144Z,0.00
2018-09-06T18:11:08.226Z,0.00
2018-09-06T18:12:08.121Z,0.00
2018-09-06T18:13:08.134Z,0.00
2018-09-06T18:14:08.099Z,0.00
2018-09-06T18:15:08.089Z,0.00
2018-09-06T18:16:08.078Z,0.00
2018-09-06T18:17:08.067Z,0.00
2018-09-06T18:18:08.074Z,0.00
2018-09-06T18:19:08.098Z,0.00
2018-09-06T18:20:08.041Z,0.00
2018-09-06T18:21:08.021Z,0.00
2018-09-06T18:22:08.014Z,0.00
2018-09-06T18:23:08.037Z,0.00
2018-09-06T18:24:08.256Z,0.00
2018-09-06T18:25:08.006Z,0.00
2018-09-06T18:26:07.967Z,0.00
2018-09-06T18:27:07.958Z,0.00
2018-09-06T18:28:07.960Z,0.00
2018-09-06T18:29:07.935Z,0.00
2018-09-06T18:30:07.924Z,0.00
2018-09-06T18:31:07.919Z,0.00
2018-09-06T18:32:07.905Z,0.00
2018-09-06T18:33:07.906Z,0.00
2018-09-06T18:34:07.884Z,0.00
2018-09-06T18:35:07.869Z,0.00
2018-09-06T18:36:07.908Z,0.00
2018-09-06T18:37:07.977Z,0.00
2018-09-06T18:38:07.851Z,0.00
2018-09-06T18:39:07.826Z,0.00
2018-09-06T18:40:07.815Z,0.00
2018-09-06T18:41:07.806Z,0.00
2018-09-06T18:42:07.825Z,0.00
2018-09-06T18:43:07.813Z,0.00
2018-09-06T18:44:07.866Z,0.00
2018-09-06T18:45:07.763Z,0.00
2018-09-06T18:46:07.753Z,0.00
2018-09-06T18:47:07.737Z,0.00
2018-09-06T18:48:07.789Z,0.00
2018-09-06T18:49:07.827Z,0.00
2018-09-06T18:50:07.717Z,0.00
2018-09-06T18:51:07.702Z,0.00
2018-09-06T18:52:07.710Z,0.00
2018-09-06T18:53:07.689Z,0.00
2018-09-06T18:54:07.661Z,0.00
2018-09-06T18:55:07.684Z,0.00
2018-09-06T18:56:07.644Z,0.00
2018-09-06T18:57:07.641Z,0.00
2018-09-06T18:58:07.633Z,0.00
2018-09-06T18:59:07.607Z,0.00
2018-09-06T19:00:07.599Z,0.00
2018-09-06T19:01:07.593Z,0.00
2018-09-06T19:02:07.679Z,0.00
2018-09-06T19:03:07.578Z,0.00
2018-09-06T19:04:07.554Z,0.00
2018-09-06T19:05:07.559Z,0.00
2018-09-06T19:06:07.531Z,0.00